Time;durP1;ratioP1;P1;durP2;ratioP2;P2;SDS_P1;SDS_P2;PMS_P1;PMS_P2;Temp;Humidity;BMP_temperature;BMP_pressure;BME280_temperature;BME280_humidity;BME280_pressure;Samples;Min_cycle;Max_cycle;Signal;HPM_P1;HPM_P2
2022/08/04 00:01:16;;;;;;;8.27;3.50;;;17.60;99.90;;;;;;6125187;23;20592;-87
2022/08/04 00:03:51;;;;;;;6.67;3.67;;;17.60;99.90;;;;;;6125277;23;20221;-87
2022/08/04 00:06:37;;;;;;;6.17;3.10;;;17.70;99.90;;;;;;6124723;23;20191;-86
2022/08/04 00:09:12;;;;;;;7.93;4.40;;;17.80;99.90;;;;;;6125545;23;20141;-86
2022/08/04 00:11:44;;;;;;;4.17;3.33;;;17.90;99.90;;;;;;6125598;23;20144;-87
2022/08/04 00:14:15;;;;;;;5.97;3.10;;;17.90;99.90;;;;;;6101117;23;20636;-87
2022/08/04 00:16:42;;;;;;;6.10;3.63;;;17.80;99.90;;;;;;6100920;23;20258;-87
2022/08/04 00:19:39;;;;;;;6.03;3.70;;;17.80;99.90;;;;;;6101274;23;20204;-87
2022/08/04 00:22:08;;;;;;;5.00;3.93;;;17.60;99.90;;;;;;6125421;23;20239;-87
2022/08/04 00:24:35;;;;;;;7.97;4.10;;;17.60;99.90;;;;;;6100966;23;20192;-87
2022/08/04 00:27:01;;;;;;;5.00;3.13;;;17.70;99.90;;;;;;6100936;23;20218;-87
2022/08/04 00:29:27;;;;;;;9.10;3.83;;;17.70;99.90;;;;;;6101303;23;20160;-87
2022/08/04 00:31:55;;;;;;;5.60;3.30;;;17.80;99.90;;;;;;6101201;23;20231;-87
2022/08/04 00:34:26;;;;;;;7.90;2.90;;;17.80;99.90;;;;;;6125293;23;20576;-86
2022/08/04 00:36:54;;;;;;;6.07;3.90;;;17.80;99.90;;;;;;6125180;23;20668;-87
2022/08/04 00:39:20;;;;;;;5.93;3.20;;;17.90;99.90;;;;;;6101051;23;20271;-87
2022/08/04 00:41:56;;;;;;;5.60;3.57;;;17.90;99.90;;;;;;6101151;23;20244;-87
2022/08/04 00:44:34;;;;;;;9.30;3.77;;;18.00;99.90;;;;;;6125491;23;20200;-87
2022/08/04 00:47:04;;;;;;;5.67;4.30;;;18.00;99.90;;;;;;6124663;23;20195;-88
2022/08/04 00:50:08;;;;;;;4.97;2.90;;;18.10;99.90;;;;;;6126568;23;20577;-87
2022/08/04 00:52:46;;;;;;;7.73;4.40;;;18.10;99.90;;;;;;6106614;23;20244;-87
2022/08/04 00:55:37;;;;;;;10.33;3.07;;;18.20;99.90;;;;;;6125122;23;20215;-87
2022/08/04 00:58:53;;;;;;;11.30;3.73;;;18.10;99.90;;;;;;6109463;23;20645;-87
2022/08/04 01:01:54;;;;;;;5.70;3.43;;;18.20;99.90;;;;;;6118828;23;20220;-88
2022/08/04 01:04:56;;;;;;;5.60;3.87;;;18.10;99.90;;;;;;6126295;23;20893;-87
2022/08/04 01:07:59;;;;;;;4.53;3.60;;;18.20;99.90;;;;;;6124790;23;20191;-87
2022/08/04 01:10:41;;;;;;;4.57;3.40;;;18.30;99.90;;;;;;6124454;23;20192;-88
2022/08/04 01:13:49;;;;;;;7.73;4.67;;;18.40;99.90;;;;;;6125043;23;20215;-87
2022/08/04 01:16:16;;;;;;;7.70;4.27;;;18.50;99.90;;;;;;6056531;23;20202;-87
2022/08/04 01:19:02;;;;;;;6.63;4.67;;;18.50;99.90;;;;;;6125066;23;20192;-87
2022/08/04 01:21:56;;;;;;;10.90;4.27;;;18.60;99.90;;;;;;6124352;23;20199;-87
2022/08/04 01:24:50;;;;;;;11.03;3.30;;;18.50;99.90;;;;;;6124624;23;20719;-87
2022/08/04 01:27:34;;;;;;;5.03;3.57;;;18.40;99.90;;;;;;6124429;23;20242;-88
2022/08/04 01:30:00;;;;;;;4.00;3.37;;;18.40;99.90;;;;;;6124906;23;20155;-88
2022/08/04 01:32:37;;;;;;;4.07;2.80;;;18.40;99.90;;;;;;6100957;23;20164;-88
2022/08/04 01:35:10;;;;;;;9.77;4.27;;;18.40;99.90;;;;;;6126488;23;20199;-88
2022/08/04 01:37:54;;;;;;;6.97;4.30;;;18.50;99.90;;;;;;6125001;23;20645;-88
2022/08/04 01:40:20;;;;;;;7.77;4.10;;;18.50;99.90;;;;;;6124274;23;20203;-89
2022/08/04 01:42:50;;;;;;;8.93;4.77;;;18.50;99.90;;;;;;6124202;23;20665;-88
2022/08/04 01:45:16;;;;;;;4.73;4.03;;;18.60;99.90;;;;;;6125032;23;20192;-87
2022/08/04 01:47:49;;;;;;;8.00;4.10;;;18.60;99.90;;;;;;6100723;23;20179;-88
2022/08/04 01:50:15;;;;;;;9.10;3.53;;;18.60;99.90;;;;;;6124772;23;20255;-87
2022/08/04 01:52:42;;;;;;;7.03;3.73;;;18.40;99.90;;;;;;6075624;23;20239;-87
2022/08/04 01:55:10;;;;;;;8.27;3.70;;;18.30;99.90;;;;;;6076311;23;20204;-88
2022/08/04 01:57:43;;;;;;;7.67;4.07;;;18.30;99.90;;;;;;6124168;23;20701;-87
2022/08/04 02:00:12;;;;;;;4.37;3.33;;;18.30;99.90;;;;;;6124327;23;20653;-87
2022/08/04 02:02:38;;;;;;;6.43;3.60;;;18.40;99.90;;;;;;6100121;23;20210;-87
2022/08/04 02:05:04;;;;;;;6.67;4.30;;;18.40;99.90;;;;;;6123953;23;20196;-87
2022/08/04 02:07:46;;;;;;;7.23;3.97;;;18.40;99.90;;;;;;6099701;23;20207;-88
2022/08/04 02:10:33;;;;;;;6.77;3.87;;;18.40;99.90;;;;;;6124266;23;20331;-87
2022/08/04 02:13:17;;;;;;;9.27;4.07;;;18.50;99.90;;;;;;6124253;23;20196;-87
2022/08/04 02:16:21;;;;;;;6.33;3.53;;;18.50;99.90;;;;;;6123867;23;20203;-88
2022/08/04 02:19:05;;;;;;;6.17;4.70;;;18.50;99.90;;;;;;6101889;23;20223;-88
2022/08/04 02:21:33;;;;;;;5.77;4.37;;;18.50;99.90;;;;;;6125285;23;20547;-87
2022/08/04 02:24:07;;;;;;;5.57;4.27;;;18.50;99.90;;;;;;6125187;23;20159;-87
2022/08/04 02:26:35;;;;;;;5.30;3.93;;;18.60;99.90;;;;;;6124637;23;20489;-87
2022/08/04 02:29:09;;;;;;;5.50;4.77;;;18.50;99.90;;;;;;6099296;23;20196;-87
2022/08/04 02:31:51;;;;;;;7.73;4.00;;;18.50;99.90;;;;;;6123277;23;20202;-87
2022/08/04 02:34:38;;;;;;;6.93;4.50;;;18.50;99.90;;;;;;6123776;23;20766;-86
2022/08/04 02:37:04;;;;;;;8.40;5.03;;;18.50;99.90;;;;;;6123729;23;20196;-86
2022/08/04 02:39:34;;;;;;;9.87;4.50;;;18.60;99.90;;;;;;6075448;23;20192;-87
2022/08/04 02:42:02;;;;;;;7.07;4.20;;;18.70;99.90;;;;;;6123628;23;20655;-87
2022/08/04 02:44:30;;;;;;;12.37;4.00;;;18.70;99.90;;;;;;6124127;23;20152;-87
2022/08/04 02:46:56;;;;;;;5.50;3.97;;;18.80;99.90;;;;;;6099759;23;20196;-87
2022/08/04 02:49:22;;;;;;;5.97;3.83;;;18.80;99.90;;;;;;6099347;23;20199;-87
2022/08/04 02:51:53;;;;;;;6.60;3.87;;;18.80;99.90;;;;;;6118893;23;20539;-87
2022/08/04 02:54:24;;;;;;;7.07;3.60;;;18.80;99.90;;;;;;6070841;23;20207;-87
2022/08/04 02:56:54;;;;;;;5.30;3.73;;;18.80;99.90;;;;;;6070302;23;20141;-87
2022/08/04 02:59:24;;;;;;;4.83;3.93;;;18.80;99.90;;;;;;6048276;23;20142;-87
2022/08/04 03:01:53;;;;;;;6.93;3.30;;;18.70;99.90;;;;;;6070457;23;20208;-87
2022/08/04 03:04:37;;;;;;;6.87;3.63;;;18.60;99.90;;;;;;6047055;23;20204;-87
2022/08/04 03:07:19;;;;;;;9.00;4.40;;;18.50;99.90;;;;;;6070286;23;20650;-87
2022/08/04 03:10:07;;;;;;;7.93;3.50;;;18.60;99.90;;;;;;6095794;23;20228;-87
2022/08/04 03:12:58;;;;;;;5.77;3.20;;;18.60;99.90;;;;;;6070374;23;20271;-87
2022/08/04 03:15:36;;;;;;;8.23;4.47;;;18.50;99.90;;;;;;6071855;23;20630;-88
2022/08/04 03:18:30;;;;;;;5.83;3.60;;;18.60;99.90;;;;;;6072095;23;20156;-87
2022/08/04 03:21:12;;;;;;;4.57;3.67;;;18.60;99.90;;;;;;6072232;23;20182;-86
2022/08/04 03:23:54;;;;;;;5.10;3.53;;;18.70;99.90;;;;;;6072186;23;20232;-87
2022/08/04 03:26:54;;;;;;;7.33;4.10;;;18.80;99.90;;;;;;6097913;23;20606;-86
2022/08/04 03:29:44;;;;;;;4.07;3.47;;;18.80;99.90;;;;;;6072308;23;20173;-87
2022/08/04 03:32:12;;;;;;;9.63;4.57;;;18.80;99.90;;;;;;6071945;23;20208;-86
2022/08/04 03:34:38;;;;;;;8.50;4.20;;;18.80;99.90;;;;;;6071569;23;20205;-87
2022/08/04 03:37:29;;;;;;;8.30;3.67;;;18.80;99.90;;;;;;6072246;23;20201;-87
2022/08/04 03:40:22;;;;;;;10.67;3.40;;;18.80;99.90;;;;;;6072246;23;20293;-87
2022/08/04 03:43:12;;;;;;;5.87;3.40;;;18.90;99.90;;;;;;6071977;23;20204;-87
2022/08/04 03:45:54;;;;;;;9.47;4.20;;;18.90;99.90;;;;;;6071805;23;20223;-87
2022/08/04 03:48:57;;;;;;;9.67;4.43;;;19.00;99.90;;;;;;6097596;23;20284;-87
2022/08/04 03:55:02;;;;;;;6.87;4.23;;;18.80;99.90;;;;;;6097779;23;20159;-87
2022/08/04 03:57:50;;;;;;;4.77;3.30;;;18.70;99.90;;;;;;5929819;24;20207;-87
2022/08/04 04:00:23;;;;;;;9.13;3.80;;;18.70;99.90;;;;;;6063890;23;20207;-87
2022/08/04 04:03:07;;;;;;;6.43;4.27;;;18.80;99.90;;;;;;6071979;23;20169;-87
2022/08/04 04:06:00;;;;;;;5.47;3.23;;;18.90;99.90;;;;;;6073522;23;20152;-89
2022/08/04 04:08:28;;;;;;;5.93;3.47;;;19.00;99.90;;;;;;6072719;23;20654;-88
2022/08/04 04:11:06;;;;;;;6.37;4.57;;;19.00;99.90;;;;;;6072516;23;20197;-89
2022/08/04 04:13:57;;;;;;;7.43;3.90;;;19.10;99.90;;;;;;6097507;23;20275;-88
2022/08/04 04:16:50;;;;;;;6.57;4.57;;;19.30;99.90;;;;;;6072644;23;20196;-87
2022/08/04 04:19:35;;;;;;;4.77;3.90;;;19.30;99.90;;;;;;6072495;23;20200;-88
2022/08/04 04:22:22;;;;;;;5.60;3.80;;;19.40;99.90;;;;;;6072392;23;20208;-87
2022/08/04 04:25:11;;;;;;;7.30;4.77;;;19.50;99.90;;;;;;6072012;23;20252;-88
2022/08/04 04:27:51;;;;;;;5.43;3.57;;;19.60;99.90;;;;;;6072306;23;20630;-88
2022/08/04 04:30:30;;;;;;;5.73;3.63;;;19.70;99.90;;;;;;6072395;23;20491;-87
2022/08/04 04:33:06;;;;;;;8.53;3.87;;;19.80;99.90;;;;;;6072479;23;20285;-87
2022/08/04 04:35:40;;;;;;;11.17;3.33;;;20.00;99.90;;;;;;6072969;23;20147;-88
2022/08/04 04:38:24;;;;;;;5.70;3.73;;;20.10;99.90;;;;;;6072236;23;20537;-87
2022/08/04 04:41:02;;;;;;;5.73;4.23;;;20.30;99.90;;;;;;6071867;23;20200;-87
2022/08/04 04:43:46;;;;;;;9.47;3.43;;;20.40;99.90;;;;;;6072065;23;20204;-88
2022/08/04 04:46:22;;;;;;;6.63;4.47;;;20.50;99.90;;;;;;6071976;23;20285;-87
2022/08/04 04:49:03;;;;;;;5.73;4.07;;;20.60;99.90;;;;;;6071618;23;20192;-88
2022/08/04 04:51:48;;;;;;;7.60;3.50;;;20.60;99.90;;;;;;6072015;23;20220;-87
2022/08/04 04:54:31;;;;;;;6.83;3.43;;;20.50;99.90;;;;;;6072272;23;20192;-87
2022/08/04 04:57:19;;;;;;;5.03;2.97;;;20.40;99.90;;;;;;6072298;23;20149;-87
2022/08/04 04:59:55;;;;;;;9.93;3.77;;;20.60;99.90;;;;;;6072626;23;20196;-87
2022/08/04 05:02:48;;;;;;;6.03;3.00;;;20.70;99.90;;;;;;6072400;23;20264;-87
2022/08/04 05:05:29;;;;;;;4.17;3.17;;;20.70;99.90;;;;;;6072458;23;20225;-87
2022/08/04 05:08:16;;;;;;;9.60;4.63;;;20.80;99.90;;;;;;6071736;23;20203;-87
2022/08/04 05:11:21;;;;;;;6.97;3.73;;;20.80;99.90;;;;;;6072021;23;20197;-87
2022/08/04 05:13:58;;;;;;;7.43;3.87;;;20.90;99.90;;;;;;6071602;23;20540;-87
2022/08/04 05:16:39;;;;;;;6.60;3.27;;;21.10;99.90;;;;;;6072112;23;20196;-87
2022/08/04 05:19:24;;;;;;;5.93;3.37;;;21.30;99.90;;;;;;6072062;23;20200;-87
2022/08/04 05:21:58;;;;;;;6.40;3.07;;;21.60;99.90;;;;;;6071764;23;20263;-87
2022/08/04 05:24:26;;;;;;;6.20;3.80;;;21.70;99.90;;;;;;6071860;23;20283;-87
2022/08/04 05:26:59;;;;;;;7.20;3.30;;;21.80;99.90;;;;;;6072300;23;20521;-88
2022/08/04 05:29:33;;;;;;;4.73;3.50;;;22.30;99.90;;;;;;6072905;23;20145;-87
2022/08/04 05:32:03;;;;;;;5.53;3.37;;;22.70;99.90;;;;;;6072015;23;20223;-87
2022/08/04 05:34:41;;;;;;;8.47;3.40;;;23.60;99.90;;;;;;6071748;23;20583;-88
2022/08/04 05:37:10;;;;;;;10.07;3.17;;;24.40;99.90;;;;;;6071959;23;20204;-89
2022/08/04 05:39:42;;;;;;;7.67;3.10;;;24.80;99.90;;;;;;6072825;23;20268;-90
2022/08/04 05:42:10;;;;;;;4.60;3.33;;;24.80;99.90;;;;;;6072719;23;20173;-90
2022/08/04 05:44:41;;;;;;;9.00;3.97;;;24.60;99.90;;;;;;6073821;23;20267;-90
2022/08/04 05:47:09;;;;;;;5.37;3.10;;;24.30;99.90;;;;;;6072271;23;20192;-89
2022/08/04 05:49:38;;;;;;;5.03;3.07;;;24.00;99.90;;;;;;6048336;23;20201;-90
2022/08/04 05:52:05;;;;;;;7.68;3.45;;;24.70;99.90;;;;;;6060912;23;20216;-88
2022/08/04 05:54:33;;;;;;;4.28;3.17;;;26.70;99.90;;;;;;6100760;23;20196;-88
2022/08/04 05:57:00;;;;;;;7.43;3.63;;;28.60;99.90;;;;;;6100699;23;20527;-89
2022/08/04 05:59:26;;;;;;;4.72;3.65;;;30.40;99.90;;;;;;6101236;23;20195;-89
2022/08/04 06:01:56;;;;;;;6.82;2.92;;;32.70;99.90;;;;;;6099816;23;20204;-90
2022/08/04 06:04:26;;;;;;;3.58;2.88;;;34.60;99.90;;;;;;6124585;23;20200;-89
2022/08/04 06:06:53;;;;;;;4.07;2.60;;;35.90;99.90;;;;;;6125672;23;20254;-89
2022/08/04 06:09:19;;;;;;;6.13;2.53;;;36.50;99.90;;;;;;6100074;23;20198;-89
2022/08/04 06:11:46;;;;;;;7.05;2.90;;;36.20;99.90;;;;;;6076857;23;20215;-88
2022/08/04 06:14:14;;;;;;;4.53;2.58;;;34.70;99.90;;;;;;6100293;23;20253;-88
2022/08/04 06:16:43;;;;;;;6.05;2.53;;;34.80;99.90;;;;;;6099807;23;20211;-89
2022/08/04 06:19:11;;;;;;;6.00;2.70;;;34.60;99.90;;;;;;6125997;23;20195;-88
2022/08/04 06:21:41;;;;;;;4.07;2.65;;;34.20;99.90;;;;;;6124245;23;20209;-89
2022/08/04 06:24:11;;;;;;;4.70;2.65;;;34.50;99.90;;;;;;6124895;23;20160;-88
2022/08/04 06:26:39;;;;;;;5.75;2.55;;;34.60;99.90;;;;;;6126017;23;20160;-89
2022/08/04 06:29:15;;;;;;;5.93;2.75;;;34.70;99.90;;;;;;6125529;23;20211;-89
2022/08/04 06:31:42;;;;;;;6.10;2.50;;;33.70;99.90;;;;;;6125686;23;20195;-89
2022/08/04 06:34:11;;;;;;;5.00;2.33;;;33.60;99.90;;;;;;6101742;23;20195;-88
2022/08/04 06:36:39;;;;;;;3.80;2.47;;;32.90;99.90;;;;;;6125593;23;20195;-89
2022/08/04 06:39:07;;;;;;;2.83;2.35;;;33.80;99.90;;;;;;6122901;23;20167;-87
2022/08/04 06:41:34;;;;;;;4.95;2.35;;;33.50;99.90;;;;;;6125961;23;20497;-88
2022/08/04 06:44:04;;;;;;;5.25;1.98;;;33.50;99.90;;;;;;6124321;23;20215;-88
2022/08/04 06:46:31;;;;;;;4.90;2.55;;;32.80;99.90;;;;;;6124327;23;20195;-88
2022/08/04 06:48:58;;;;;;;4.90;2.25;;;32.70;99.90;;;;;;6101615;23;20212;-88
2022/08/04 06:51:24;;;;;;;3.95;2.10;;;33.10;99.90;;;;;;6100529;23;20194;-88
2022/08/04 06:53:51;;;;;;;4.53;2.20;;;33.40;99.90;;;;;;6073143;23;20538;-88
2022/08/04 06:56:19;;;;;;;6.22;1.98;;;32.40;99.90;;;;;;6026644;23;20165;-88
2022/08/04 06:58:46;;;;;;;7.30;2.10;;;30.40;99.90;;;;;;6049507;23;20243;-88
2022/08/04 07:01:18;;;;;;;4.25;2.17;;;29.90;99.90;;;;;;6049345;23;20709;-88
2022/08/04 07:03:44;;;;;;;2.40;2.20;;;31.20;99.90;;;;;;6073125;23;20196;-88
2022/08/04 07:06:10;;;;;;;4.80;2.47;;;31.50;99.90;;;;;;6049554;23;20193;-88
2022/08/04 07:08:36;;;;;;;3.65;2.28;;;31.30;99.90;;;;;;6050248;23;20595;-90
2022/08/04 07:11:02;;;;;;;4.60;1.88;;;30.70;99.90;;;;;;6050113;23;20201;-89
2022/08/04 07:13:30;;;;;;;5.22;1.88;;;30.50;99.90;;;;;;6073999;23;20528;-89
2022/08/04 07:15:58;;;;;;;2.53;1.55;;;31.60;99.90;;;;;;6073474;23;20197;-89
2022/08/04 07:18:24;;;;;;;2.53;1.48;;;33.00;99.90;;;;;;6073264;23;20880;-89
2022/08/04 07:20:51;;;;;;;1.40;1.20;;;34.70;99.90;;;;;;6027206;23;20168;-89
2022/08/04 07:23:22;;;;;;;3.15;1.75;;;35.90;99.90;;;;;;6050755;23;20160;-89
2022/08/04 07:25:53;;;;;;;4.53;1.35;;;35.80;99.90;;;;;;6049604;23;20250;-89
2022/08/04 07:28:20;;;;;;;9.95;1.42;;;36.30;99.90;;;;;;6050537;23;20197;-90
2022/08/04 07:30:48;;;;;;;2.47;1.13;;;36.60;99.90;;;;;;6049411;23;20192;-88
2022/08/04 07:33:16;;;;;;;4.03;1.38;;;36.00;99.90;;;;;;6049153;23;20634;-89
2022/08/04 07:35:42;;;;;;;3.08;1.40;;;36.20;99.90;;;;;;6098794;23;20179;-89
2022/08/04 07:38:10;;;;;;;3.42;1.40;;;36.90;99.90;;;;;;6048891;23;20523;-89
2022/08/04 07:40:36;;;;;;;2.42;1.38;;;37.50;99.90;;;;;;6051748;23;20621;-90
2022/08/04 07:43:03;;;;;;;4.20;1.48;;;37.30;99.90;;;;;;6051680;23;20213;-90
2022/08/04 07:45:29;;;;;;;3.03;1.27;;;37.20;99.90;;;;;;6072854;23;20252;-90
2022/08/04 07:47:55;;;;;;;4.43;1.58;;;37.20;99.90;;;;;;6026862;23;20235;-90
2022/08/04 07:50:21;;;;;;;1.60;1.40;;;37.40;99.90;;;;;;6073874;23;20614;-89
2022/08/04 07:52:48;;;;;;;2.40;1.23;;;37.80;99.90;;;;;;6079812;23;20290;-90
2022/08/04 07:55:15;;;;;;;1.50;1.20;;;36.30;99.90;;;;;;6101948;23;20208;-89
2022/08/04 07:57:41;;;;;;;3.08;1.30;;;35.50;99.90;;;;;;6126626;23;20196;-89
2022/08/04 08:00:08;;;;;;;2.45;1.10;;;35.60;99.90;;;;;;6077564;23;20175;-88
2022/08/04 08:02:35;;;;;;;2.28;1.48;;;35.90;99.90;;;;;;6078724;23;20188;-88
2022/08/04 08:05:02;;;;;;;3.67;1.25;;;36.20;99.90;;;;;;6101622;23;20200;-89
2022/08/04 08:07:27;;;;;;;5.15;1.20;;;37.10;99.90;;;;;;6101486;23;20230;-89
2022/08/04 08:09:53;;;;;;;3.05;1.45;;;36.40;99.90;;;;;;6077466;23;20531;-88
2022/08/04 08:12:19;;;;;;;2.35;1.02;;;36.40;99.90;;;;;;6077752;23;20259;-88
2022/08/04 08:14:45;;;;;;;1.40;1.20;;;36.70;99.90;;;;;;6127882;23;20693;-88
2022/08/04 08:17:12;;;;;;;2.88;1.48;;;35.90;99.90;;;;;;6101801;23;20227;-90
2022/08/04 08:19:38;;;;;;;1.17;1.10;;;35.20;99.90;;;;;;6101766;23;20207;-89
2022/08/04 08:22:04;;;;;;;3.20;1.27;;;33.80;99.90;;;;;;6077447;23;20211;-88
2022/08/04 08:24:34;;;;;;;1.58;1.13;;;31.50;99.90;;;;;;6077610;23;20196;-88
2022/08/04 08:27:03;;;;;;;1.58;1.10;;;30.80;99.90;;;;;;6101487;23;20594;-89
2022/08/04 08:29:31;;;;;;;4.47;1.27;;;31.20;99.90;;;;;;6102465;23;20251;-89
2022/08/04 08:31:59;;;;;;;1.88;1.13;;;30.20;99.90;;;;;;6125406;23;20547;-89
2022/08/04 08:34:27;;;;;;;1.60;1.10;;;30.90;99.90;;;;;;6101119;23;20227;-88
2022/08/04 08:37:03;;;;;;;1.65;1.02;;;31.20;99.90;;;;;;6125660;23;20239;-88
2022/08/04 08:39:42;;;;;;;1.27;1.17;;;32.50;99.90;;;;;;6125750;23;20198;-88
2022/08/04 08:42:26;;;;;;;1.40;1.02;;;33.70;99.90;;;;;;6125432;23;20214;-89
2022/08/04 08:44:55;;;;;;;1.77;1.25;;;33.20;99.90;;;;;;6125331;23;20144;-88
2022/08/04 08:47:39;;;;;;;2.08;0.80;;;34.30;99.90;;;;;;6125952;23;20156;-88
2022/08/04 08:50:33;;;;;;;1.17;0.90;;;35.50;99.90;;;;;;6125068;23;20660;-88
2022/08/04 08:53:21;;;;;;;6.10;1.23;;;35.30;99.90;;;;;;6124965;23;20219;-87
2022/08/04 08:56:09;;;;;;;1.23;1.10;;;34.70;99.90;;;;;;6125159;23;20211;-89
2022/08/04 08:58:48;;;;;;;1.30;1.20;;;34.70;99.90;;;;;;6126245;23;20200;-88
2022/08/04 09:01:35;;;;;;;1.10;0.98;;;33.70;99.90;;;;;;6127758;23;20210;-89
2022/08/04 09:04:22;;;;;;;1.38;0.95;;;34.60;99.90;;;;;;6125224;23;20196;-88
2022/08/04 09:07:23;;;;;;;0.93;0.90;;;33.80;99.90;;;;;;6124827;23;20227;-88
2022/08/04 09:10:19;;;;;;;1.23;1.05;;;33.80;99.90;;;;;;6124565;23;20251;-88
2022/08/04 09:12:56;;;;;;;0.98;0.90;;;32.30;99.90;;;;;;6124675;23;20223;-87
2022/08/04 09:16:05;;;;;;;2.47;0.85;;;32.40;99.90;;;;;;6124984;23;20192;-88
2022/08/04 09:18:46;;;;;;;5.65;1.27;;;31.90;99.90;;;;;;6124618;23;20749;-88
2022/08/04 09:21:56;;;;;;;1.90;1.17;;;33.00;99.90;;;;;;6124975;23;20207;-89
2022/08/04 09:24:45;;;;;;;2.25;1.20;;;33.20;99.90;;;;;;6100000;23;20196;-87
2022/08/04 09:27:39;;;;;;;3.53;1.02;;;32.00;99.90;;;;;;6124699;23;20191;-87
2022/08/04 09:30:10;;;;;;;2.13;1.05;;;31.00;99.90;;;;;;6124494;23;20140;-89
2022/08/04 09:32:57;;;;;;;1.25;1.10;;;30.90;99.90;;;;;;6125134;23;20144;-87
2022/08/04 09:35:40;;;;;;;1.35;1.10;;;32.30;99.90;;;;;;6124784;23;20176;-87
2022/08/04 09:38:25;;;;;;;1.65;1.08;;;33.10;99.90;;;;;;6124521;23;20207;-87
2022/08/04 09:41:22;;;;;;;1.67;0.90;;;31.80;99.90;;;;;;6124416;23;20200;-87
2022/08/04 09:44:12;;;;;;;2.70;1.13;;;30.70;99.90;;;;;;6124264;23;20664;-88
2022/08/04 09:46:54;;;;;;;1.60;1.27;;;30.20;99.90;;;;;;6124834;23;20633;-87
2022/08/04 09:49:38;;;;;;;2.38;1.00;;;30.20;99.90;;;;;;6124909;23;20218;-87
2022/08/04 09:52:20;;;;;;;1.45;1.35;;;30.00;99.90;;;;;;6125171;23;20294;-90
2022/08/04 09:54:58;;;;;;;1.45;1.20;;;30.00;99.90;;;;;;6124668;23;20204;-88
2022/08/04 09:57:30;;;;;;;2.33;1.20;;;31.40;99.90;;;;;;6125191;23;20257;-88
2022/08/04 10:00:06;;;;;;;2.55;1.60;;;32.00;99.90;;;;;;6125306;23;20164;-89
2022/08/04 10:02:43;;;;;;;2.97;1.10;;;31.60;99.90;;;;;;6126042;23;20215;-88
2022/08/04 10:05:15;;;;;;;1.92;1.23;;;31.40;99.90;;;;;;6124887;23;20676;-88
2022/08/04 10:07:55;;;;;;;1.70;1.02;;;31.70;99.90;;;;;;6125033;23;20249;-89
2022/08/04 10:10:39;;;;;;;1.38;1.05;;;30.50;99.90;;;;;;6125439;23;20784;-88
2022/08/04 10:13:24;;;;;;;2.00;1.17;;;30.30;99.90;;;;;;6124849;23;20250;-89
2022/08/04 10:15:56;;;;;;;2.58;1.50;;;30.30;99.90;;;;;;6125127;23;20199;-89
2022/08/04 10:18:42;;;;;;;2.15;0.88;;;30.60;99.90;;;;;;6126755;23;20649;-89
2022/08/04 10:21:30;;;;;;;4.18;1.40;;;31.00;99.90;;;;;;6125249;23;20167;-89
2022/08/04 10:24:40;;;;;;;1.95;1.00;;;30.70;99.90;;;;;;6124953;23;20201;-87
2022/08/04 10:27:16;;;;;;;1.73;1.17;;;31.10;99.90;;;;;;6125172;23;20152;-89
2022/08/04 10:29:46;;;;;;;2.03;1.10;;;30.60;99.90;;;;;;6125890;23;20463;-88
2022/08/04 10:32:21;;;;;;;1.23;1.05;;;30.80;99.90;;;;;;6100273;23;20248;-87
2022/08/04 10:35:06;;;;;;;1.52;1.23;;;30.80;99.90;;;;;;6124550;23;20203;-87
2022/08/04 10:37:54;;;;;;;1.73;1.10;;;30.50;99.90;;;;;;6124711;23;20196;-89
2022/08/04 10:40:36;;;;;;;3.30;1.40;;;30.40;99.90;;;;;;6125270;23;20196;-88
2022/08/04 10:43:32;;;;;;;2.58;1.20;;;29.80;99.90;;;;;;6124655;23;20207;-87
2022/08/04 10:46:06;;;;;;;1.85;1.50;;;28.90;99.90;;;;;;6124402;23;20739;-88
2022/08/04 10:48:40;;;;;;;3.15;1.33;;;28.40;99.90;;;;;;6124648;23;20908;-88
2022/08/04 10:51:44;;;;;;;1.60;0.85;;;28.80;99.90;;;;;;6124409;23;20144;-91
2022/08/04 10:54:32;;;;;;;3.40;1.15;;;28.80;99.90;;;;;;6009148;23;20285;-89
2022/08/04 10:57:01;;;;;;;1.23;0.95;;;28.40;99.90;;;;;;6121768;23;20199;-90
2022/08/04 10:59:33;;;;;;;1.52;1.13;;;27.40;99.90;;;;;;6125538;23;20160;-88
2022/08/04 11:02:29;;;;;;;2.03;1.20;;;27.40;99.90;;;;;;6124794;23;20203;-91
2022/08/04 11:05:13;;;;;;;2.42;1.30;;;28.10;99.90;;;;;;6124967;23;20229;-89
2022/08/04 11:07:46;;;;;;;3.25;1.20;;;28.50;99.90;;;;;;6124370;23;20192;-90
2022/08/04 11:10:12;;;;;;;3.95;1.20;;;29.00;99.90;;;;;;6124910;23;20192;-88
2022/08/04 11:12:41;;;;;;;3.75;1.27;;;29.20;99.90;;;;;;6125924;23;20243;-89
2022/08/04 11:15:22;;;;;;;1.33;1.15;;;28.80;99.90;;;;;;6124498;23;20614;-87
2022/08/04 11:18:04;;;;;;;3.05;1.45;;;28.80;99.90;;;;;;6124962;23;20147;-89
2022/08/04 11:20:40;;;;;;;2.33;1.00;;;28.80;99.90;;;;;;6125511;23;20219;-88
2022/08/04 11:23:12;;;;;;;1.83;1.52;;;28.60;99.90;;;;;;6124178;23;20223;-88
2022/08/04 11:26:05;;;;;;;6.43;1.70;;;28.80;99.90;;;;;;6124345;23;20192;-89
2022/08/04 11:28:46;;;;;;;6.10;1.88;;;28.40;99.90;;;;;;6124608;23;20649;-88
2022/08/04 11:31:20;;;;;;;3.03;1.40;;;28.00;99.90;;;;;;6123853;23;20200;-88
2022/08/04 11:34:14;;;;;;;6.70;1.90;;;27.30;99.90;;;;;;6124636;23;20192;-88
2022/08/04 11:37:17;;;;;;;2.47;1.40;;;27.40;99.90;;;;;;6126672;23;20257;-88
2022/08/04 11:39:49;;;;;;;5.55;1.90;;;27.60;99.90;;;;;;6126488;23;20195;-88
2022/08/04 11:42:20;;;;;;;3.08;1.30;;;27.80;99.90;;;;;;6126293;23;20204;-88
2022/08/04 11:44:54;;;;;;;3.30;1.27;;;28.10;99.90;;;;;;6126350;23;20160;-88
2022/08/04 11:47:20;;;;;;;5.03;1.98;;;27.70;99.90;;;;;;6126253;23;20184;-88
2022/08/04 11:49:53;;;;;;;1.83;1.20;;;27.20;99.90;;;;;;6126020;23;20250;-88
2022/08/04 11:52:20;;;;;;;4.55;1.60;;;27.30;99.90;;;;;;6125686;23;20551;-88
2022/08/04 11:54:48;;;;;;;3.88;1.38;;;26.90;99.90;;;;;;6125904;23;20203;-88
2022/08/04 11:57:14;;;;;;;7.43;1.52;;;26.80;99.90;;;;;;6125830;23;20200;-89
2022/08/04 11:59:42;;;;;;;6.15;1.45;;;26.70;99.90;;;;;;6102486;23;20164;-88
2022/08/04 12:02:26;;;;;;;2.63;1.30;;;27.00;99.90;;;;;;6101665;23;20572;-89
2022/08/04 12:04:59;;;;;;;4.10;1.60;;;27.40;99.90;;;;;;6126103;23;20716;-88
2022/08/04 12:07:57;;;;;;;4.60;1.70;;;27.20;99.90;;;;;;6126181;23;20220;-88
2022/08/04 12:10:38;;;;;;;2.28;1.17;;;26.70;99.90;;;;;;6125923;23;20200;-88
2022/08/04 12:13:15;;;;;;;3.40;1.67;;;26.40;99.90;;;;;;6126061;23;20196;-89
2022/08/04 12:16:03;;;;;;;3.33;1.15;;;26.40;99.90;;;;;;6126249;23;20200;-89
2022/08/04 12:18:34;;;;;;;2.70;1.60;;;26.40;99.90;;;;;;6126415;23;20279;-89
2022/08/04 12:21:06;;;;;;;4.22;1.67;;;26.10;99.90;;;;;;6125849;23;20161;-90
2022/08/04 12:23:37;;;;;;;4.75;2.03;;;26.10;99.90;;;;;;6126713;23;20146;-87
2022/08/04 12:26:07;;;;;;;6.35;2.72;;;25.70;99.90;;;;;;6125689;23;20279;-88
2022/08/04 12:28:39;;;;;;;4.53;2.38;;;25.00;99.90;;;;;;6125797;23;20188;-87
2022/08/04 12:31:19;;;;;;;6.20;2.15;;;25.10;99.90;;;;;;6125277;23;20534;-88
2022/08/04 12:34:11;;;;;;;8.43;2.58;;;24.90;99.90;;;;;;6125598;23;20202;-87
2022/08/04 12:37:03;;;;;;;3.65;2.20;;;24.90;99.90;;;;;;6125991;23;20644;-87
2022/08/04 12:39:30;;;;;;;4.22;2.40;;;24.60;99.90;;;;;;6126887;23;20235;-88
2022/08/04 12:41:57;;;;;;;9.57;3.03;;;24.30;99.90;;;;;;6125649;23;20181;-88
2022/08/04 12:44:24;;;;;;;10.30;3.40;;;24.30;99.90;;;;;;6126002;23;20152;-88
2022/08/04 12:46:50;;;;;;;6.85;2.72;;;25.10;99.90;;;;;;6125318;23;20192;-89
2022/08/04 12:49:17;;;;;;;5.18;2.72;;;25.40;99.90;;;;;;6077365;23;20267;-89
2022/08/04 12:51:45;;;;;;;3.60;2.42;;;25.60;99.90;;;;;;6075387;23;20196;-87
2022/08/04 12:54:13;;;;;;;7.47;1.98;;;25.60;99.90;;;;;;6048193;23;20259;-88
2022/08/04 12:56:40;;;;;;;3.10;1.85;;;25.10;99.90;;;;;;6098162;23;20172;-88
2022/08/04 12:59:09;;;;;;;4.55;2.22;;;25.20;99.90;;;;;;6097174;23;20208;-88
2022/08/04 13:01:36;;;;;;;7.03;2.10;;;25.20;99.90;;;;;;6072151;23;20646;-88
2022/08/04 13:04:14;;;;;;;10.90;2.35;;;24.80;99.90;;;;;;6048415;23;20200;-89
2022/08/04 13:06:41;;;;;;;3.83;2.67;;;24.80;99.90;;;;;;6097594;23;20219;-90
2022/08/04 13:09:15;;;;;;;6.45;3.28;;;24.30;99.90;;;;;;6025190;23;20633;-90
2022/08/04 13:11:46;;;;;;;9.45;2.95;;;23.90;99.90;;;;;;6072866;23;20149;-90
2022/08/04 13:14:14;;;;;;;5.30;3.05;;;24.10;99.90;;;;;;6072157;23;20243;-89
2022/08/04 13:16:40;;;;;;;4.53;2.80;;;24.20;99.90;;;;;;6072266;23;20634;-90
2022/08/04 13:19:09;;;;;;;3.42;2.40;;;24.40;99.90;;;;;;6048238;23;20208;-89
2022/08/04 13:21:43;;;;;;;4.93;2.50;;;24.10;99.90;;;;;;6071908;23;20204;-89
2022/08/04 13:24:13;;;;;;;3.17;1.90;;;24.30;99.90;;;;;;6072167;23;20200;-89
2022/08/04 13:27:10;;;;;;;3.25;2.60;;;24.50;99.90;;;;;;6098210;23;20890;-90
2022/08/04 13:29:43;;;;;;;3.45;1.88;;;24.70;99.90;;;;;;6072301;23;20177;-90
2022/08/04 13:32:09;;;;;;;1.67;1.52;;;25.10;99.90;;;;;;6071897;23;20255;-88
2022/08/04 13:34:38;;;;;;;1.95;1.40;;;24.90;99.90;;;;;;6048497;23;20200;-89
2022/08/04 13:37:06;;;;;;;1.40;1.30;;;24.80;99.90;;;;;;6048903;23;20280;-90